createdAt,value
2019-05-30T00:01:21.186Z,13.50
2019-05-30T00:03:51.569Z,12.50
2019-05-30T00:06:21.933Z,15.03
2019-05-30T00:08:52.307Z,14.73
2019-05-30T00:11:22.684Z,15.07
2019-05-30T00:13:52.995Z,16.37
2019-05-30T00:16:23.350Z,16.17
2019-05-30T00:18:54.644Z,16.83
2019-05-30T00:21:25.043Z,17.97
2019-05-30T00:23:55.803Z,18.23
2019-05-30T00:26:26.263Z,17.97
2019-05-30T00:28:56.609Z,16.77
2019-05-30T00:31:26.927Z,17.73
2019-05-30T00:33:57.512Z,18.37
2019-05-30T00:36:27.864Z,18.27
2019-05-30T00:38:58.311Z,17.27
2019-05-30T00:41:28.631Z,18.83
2019-05-30T00:43:59.921Z,17.53
2019-05-30T00:46:30.382Z,19.50
2019-05-30T00:49:00.743Z,17.73
2019-05-30T00:51:31.130Z,17.93
2019-05-30T00:54:02.802Z,18.57
2019-05-30T00:56:34.287Z,18.03
2019-05-30T00:59:04.897Z,18.70
2019-05-30T01:01:36.351Z,18.07
2019-05-30T01:04:07.102Z,18.23
2019-05-30T01:06:37.606Z,18.03
2019-05-30T01:09:08.001Z,17.10
2019-05-30T01:11:38.328Z,18.17
2019-05-30T01:14:08.674Z,16.83
2019-05-30T01:16:42.306Z,17.07
2019-05-30T01:19:11.100Z,17.70
2019-05-30T01:21:41.408Z,17.20
2019-05-30T01:24:11.749Z,15.73
2019-05-30T01:26:42.077Z,15.60
2019-05-30T01:29:12.452Z,16.57
2019-05-30T01:31:42.759Z,18.03
2019-05-30T01:34:13.111Z,16.67
2019-05-30T01:36:43.479Z,16.57
2019-05-30T01:39:13.821Z,16.47
2019-05-30T01:41:44.206Z,17.23
2019-05-30T01:44:14.559Z,16.97
2019-05-30T01:46:44.861Z,15.63
2019-05-30T01:49:15.206Z,17.50
2019-05-30T01:51:45.523Z,16.83
2019-05-30T01:54:15.900Z,19.23
2019-05-30T01:56:46.186Z,19.20
2019-05-30T01:59:16.524Z,19.13
2019-05-30T02:01:46.855Z,18.23
2019-05-30T02:04:17.223Z,19.53
2019-05-30T02:06:47.540Z,19.30
2019-05-30T02:09:17.889Z,18.53
2019-05-30T02:11:48.200Z,18.00
2019-05-30T02:14:18.539Z,20.40
2019-05-30T02:16:48.965Z,18.47
2019-05-30T02:19:19.353Z,20.27
2019-05-30T02:21:49.659Z,18.10
2019-05-30T02:24:20.112Z,20.23
2019-05-30T02:26:50.482Z,19.30
2019-05-30T02:29:20.815Z,19.57
2019-05-30T02:31:51.115Z,18.70
2019-05-30T02:34:21.447Z,19.37
2019-05-30T02:36:51.760Z,18.27
2019-05-30T02:39:22.112Z,18.70
2019-05-30T02:41:52.425Z,18.43
2019-05-30T02:44:22.754Z,18.67
2019-05-30T02:46:58.031Z,18.37
2019-05-30T02:49:28.391Z,21.30
2019-05-30T02:51:58.688Z,20.57
2019-05-30T02:54:29.052Z,19.07
2019-05-30T02:56:59.347Z,18.57
2019-05-30T02:59:29.685Z,19.23
2019-05-30T03:02:04.374Z,20.07
2019-05-30T03:04:31.954Z,17.67
2019-05-30T03:07:04.085Z,18.57
2019-05-30T03:09:34.662Z,18.50
2019-05-30T03:12:06.977Z,17.70
2019-05-30T03:14:37.013Z,19.63
2019-05-30T03:17:11.407Z,18.37
2019-05-30T03:19:39.370Z,18.60
2019-05-30T03:22:12.242Z,19.60
2019-05-30T03:24:53.613Z,19.27
2019-05-30T03:27:23.988Z,17.30
2019-05-30T03:29:54.329Z,16.03
2019-05-30T03:33:02.603Z,15.60
2019-05-30T03:34:57.463Z,15.27
2019-05-30T03:37:30.319Z,16.20
2019-05-30T03:39:59.996Z,15.40
2019-05-30T03:42:30.308Z,14.87
2019-05-30T03:45:00.658Z,14.10
2019-05-30T03:47:33.209Z,15.13
2019-05-30T03:50:06.808Z,16.43
2019-05-30T03:52:37.620Z,14.80
2019-05-30T03:55:10.025Z,15.30
2019-05-30T03:57:45.602Z,16.07
2019-05-30T04:00:30.934Z,14.90
2019-05-30T04:03:11.639Z,15.27
2019-05-30T04:05:45.116Z,14.07
2019-05-30T04:08:17.359Z,14.57
2019-05-30T04:10:51.146Z,14.30
2019-05-30T04:13:42.224Z,14.27
2019-05-30T04:16:13.514Z,14.77
2019-05-30T04:18:44.538Z,14.27
2019-05-30T04:21:18.164Z,15.57
2019-05-30T04:23:46.804Z,17.03
2019-05-30T04:26:18.099Z,15.97
2019-05-30T04:28:48.776Z,16.13
2019-05-30T04:31:19.506Z,15.00
2019-05-30T04:33:50.032Z,14.40
2019-05-30T04:36:20.883Z,14.00
2019-05-30T04:38:51.193Z,14.43
2019-05-30T04:41:21.533Z,13.60
2019-05-30T04:43:51.896Z,13.37
2019-05-30T04:46:22.303Z,14.07
2019-05-30T04:48:52.638Z,14.20
2019-05-30T04:51:22.979Z,14.07
2019-05-30T04:53:53.290Z,13.33
2019-05-30T04:56:23.636Z,11.97
2019-05-30T04:58:53.944Z,11.53
2019-05-30T05:01:24.284Z,11.10
2019-05-30T05:03:54.592Z,10.63
2019-05-30T05:06:24.962Z,10.10
2019-05-30T05:08:55.284Z,10.60
2019-05-30T05:11:25.633Z,9.83
2019-05-30T05:13:55.916Z,9.80
2019-05-30T05:16:35.604Z,9.70
2019-05-30T05:18:58.890Z,9.20
2019-05-30T05:21:29.238Z,8.63
2019-05-30T05:23:59.551Z,8.77
2019-05-30T05:26:29.906Z,8.17
2019-05-30T05:29:00.266Z,8.60
2019-05-30T05:31:30.621Z,7.97
2019-05-30T05:34:00.957Z,8.10
2019-05-30T05:36:31.277Z,7.70
2019-05-30T05:39:01.637Z,8.10
2019-05-30T05:41:33.047Z,7.53
2019-05-30T05:44:03.348Z,7.90
2019-05-30T05:46:33.686Z,7.97
2019-05-30T05:49:03.989Z,8.53
2019-05-30T05:51:34.326Z,7.87
2019-05-30T05:54:04.674Z,7.40
2019-05-30T05:56:35.005Z,7.10
2019-05-30T05:59:05.308Z,6.60
2019-05-30T06:01:36.689Z,7.37
2019-05-30T06:04:13.245Z,7.43
2019-05-30T06:06:38.972Z,8.20
2019-05-30T06:09:09.276Z,7.90
2019-05-30T06:11:39.655Z,7.77
2019-05-30T06:14:09.964Z,8.20
2019-05-30T06:16:40.269Z,8.40
2019-05-30T06:19:10.579Z,8.37
2019-05-30T06:21:53.109Z,9.10
2019-05-30T06:24:12.869Z,9.67
2019-05-30T06:26:43.258Z,9.10
2019-05-30T06:29:13.616Z,9.07
2019-05-30T06:31:43.966Z,9.50
2019-05-30T06:34:28.389Z,9.20
2019-05-30T06:36:46.257Z,10.13
2019-05-30T06:39:16.589Z,9.43
2019-05-30T06:41:46.942Z,9.20
2019-05-30T06:44:17.259Z,9.07
2019-05-30T06:46:47.596Z,9.00
2019-05-30T06:49:17.911Z,8.87
2019-05-30T06:51:48.244Z,9.03
2019-05-30T06:54:21.817Z,9.07
2019-05-30T06:56:53.187Z,9.00
2019-05-30T06:59:23.512Z,8.90
2019-05-30T07:01:53.844Z,8.70
2019-05-30T07:04:25.497Z,9.17
2019-05-30T07:06:56.267Z,9.53
2019-05-30T07:09:26.861Z,9.30
2019-05-30T07:11:57.291Z,8.53
2019-05-30T07:14:29.321Z,9.20
2019-05-30T07:16:59.695Z,8.90
2019-05-30T07:19:30.021Z,7.27
2019-05-30T07:22:01.771Z,8.13
2019-05-30T07:24:32.071Z,8.17
2019-05-30T07:27:02.441Z,8.83
2019-05-30T07:29:34.136Z,8.67
2019-05-30T07:32:04.703Z,8.80
2019-05-30T07:34:35.464Z,8.80
2019-05-30T07:37:05.836Z,7.53
2019-05-30T07:39:37.648Z,8.27
2019-05-30T07:42:08.165Z,9.03
2019-05-30T07:44:38.522Z,8.20
2019-05-30T07:47:08.840Z,8.37
2019-05-30T07:49:39.179Z,8.57
2019-05-30T07:52:09.475Z,8.13
2019-05-30T07:54:39.812Z,7.53
2019-05-30T07:57:10.212Z,8.30
2019-05-30T07:59:41.619Z,7.53
2019-05-30T08:02:12.052Z,8.80
2019-05-30T08:04:42.394Z,7.50
2019-05-30T08:07:12.702Z,8.10
2019-05-30T08:09:43.049Z,7.63
2019-05-30T08:12:13.343Z,7.23
2019-05-30T08:14:43.659Z,7.17
2019-05-30T08:17:13.974Z,7.03
2019-05-30T08:19:44.318Z,6.97
2019-05-30T08:22:14.665Z,7.53
2019-05-30T08:24:44.960Z,8.77
2019-05-30T08:27:15.287Z,7.80
2019-05-30T08:29:45.664Z,7.80
2019-05-30T08:32:16.088Z,7.70
2019-05-30T08:34:46.431Z,7.93
2019-05-30T08:37:16.739Z,8.67
2019-05-30T08:39:47.068Z,8.43
2019-05-30T08:42:21.243Z,8.27
2019-05-30T08:44:51.616Z,7.90
2019-05-30T08:47:21.946Z,7.00
2019-05-30T08:49:52.270Z,6.87
2019-05-30T08:52:22.587Z,8.63
2019-05-30T08:54:52.922Z,7.70
2019-05-30T08:57:23.252Z,7.57
2019-05-30T08:59:54.847Z,9.00
2019-05-30T09:02:25.229Z,7.47
2019-05-30T09:04:55.602Z,6.20
2019-05-30T09:07:25.905Z,6.97
2019-05-30T09:09:56.424Z,6.67
2019-05-30T09:12:26.745Z,7.83
2019-05-30T09:14:57.082Z,5.70
2019-05-30T09:17:27.501Z,6.10
2019-05-30T09:19:57.825Z,5.50
2019-05-30T09:22:28.136Z,5.43
2019-05-30T09:24:58.457Z,5.33
2019-05-30T09:27:28.763Z,7.00
2019-05-30T09:29:59.114Z,6.00
2019-05-30T09:32:29.440Z,4.10
2019-05-30T09:34:59.793Z,4.90
2019-05-30T09:37:30.093Z,6.20
2019-05-30T09:40:00.443Z,4.90
2019-05-30T09:42:30.791Z,2.90
2019-05-30T09:45:01.088Z,3.10
2019-05-30T09:47:31.386Z,3.20
2019-05-30T09:50:03.904Z,3.10
2019-05-30T09:52:33.826Z,3.10
2019-05-30T09:55:04.517Z,2.83
2019-05-30T09:57:34.830Z,3.33
2019-05-30T10:00:06.438Z,3.30
2019-05-30T10:02:36.737Z,3.33
2019-05-30T10:05:07.780Z,3.40
2019-05-30T10:07:38.108Z,3.60
2019-05-30T10:10:08.678Z,4.33
2019-05-30T10:12:38.992Z,3.23
2019-05-30T10:15:09.464Z,3.90
2019-05-30T10:17:39.876Z,3.30
2019-05-30T10:20:10.715Z,3.30
2019-05-30T10:22:41.010Z,3.60
2019-05-30T10:25:11.590Z,3.50
2019-05-30T10:27:41.895Z,3.60
2019-05-30T10:30:12.889Z,3.50
2019-05-30T10:32:43.319Z,3.50
2019-05-30T10:35:14.448Z,3.87
2019-05-30T10:37:45.775Z,3.00
2019-05-30T10:40:17.379Z,2.80
2019-05-30T10:42:49.131Z,2.80
2019-05-30T10:45:22.078Z,2.53
2019-05-30T10:47:53.684Z,2.40
2019-05-30T10:50:24.476Z,2.23
2019-05-30T10:52:55.629Z,2.43
2019-05-30T10:55:27.328Z,2.57
2019-05-30T10:57:59.547Z,2.73
2019-05-30T11:00:45.648Z,2.50
2019-05-30T11:03:18.643Z,2.60
2019-05-30T11:05:58.164Z,2.67
2019-05-30T11:08:31.076Z,2.40
2019-05-30T11:11:01.459Z,3.00
2019-05-30T11:13:33.075Z,2.40
2019-05-30T11:16:03.450Z,2.63
2019-05-30T11:18:33.755Z,2.80
2019-05-30T11:21:04.549Z,2.33
2019-05-30T11:23:34.895Z,2.30
2019-05-30T11:26:05.947Z,2.33
2019-05-30T11:28:36.247Z,2.00
2019-05-30T11:31:06.596Z,2.70
2019-05-30T11:33:36.888Z,2.12
2019-05-30T11:36:07.234Z,2.15
2019-05-30T11:38:37.557Z,2.30
2019-05-30T11:41:07.919Z,2.30
2019-05-30T11:43:39.300Z,2.00
2019-05-30T11:46:09.636Z,2.00
2019-05-30T11:48:39.940Z,1.90
2019-05-30T11:51:10.291Z,2.00
2019-05-30T11:53:40.615Z,1.98
2019-05-30T11:56:10.941Z,1.80
2019-05-30T11:58:41.310Z,2.00
2019-05-30T12:01:11.652Z,1.60
2019-05-30T12:03:41.997Z,1.77
2019-05-30T12:06:12.330Z,1.95
2019-05-30T12:08:42.656Z,1.80
2019-05-30T12:11:12.959Z,1.98
2019-05-30T12:13:43.301Z,1.90
2019-05-30T12:16:13.708Z,1.85
2019-05-30T12:18:44.038Z,1.90
2019-05-30T12:21:14.371Z,2.40
2019-05-30T12:23:44.670Z,2.25
2019-05-30T12:26:15.031Z,2.10
2019-05-30T12:28:45.325Z,2.10
2019-05-30T12:31:15.680Z,2.00
2019-05-30T12:33:46.869Z,2.35
2019-05-30T12:36:17.256Z,2.55
2019-05-30T12:38:48.340Z,2.50
2019-05-30T12:41:19.869Z,2.50
2019-05-30T12:43:50.219Z,2.60
2019-05-30T12:46:20.563Z,2.60
2019-05-30T12:48:50.919Z,2.30
2019-05-30T12:51:21.299Z,2.42
2019-05-30T12:53:51.737Z,2.20
2019-05-30T12:56:22.035Z,1.85
2019-05-30T12:58:52.360Z,1.95
2019-05-30T13:01:22.705Z,2.58
2019-05-30T13:03:54.768Z,2.68
2019-05-30T13:06:25.310Z,2.60
2019-05-30T13:08:56.698Z,2.52
2019-05-30T13:11:28.343Z,2.72
2019-05-30T13:13:58.647Z,2.52
2019-05-30T13:16:28.976Z,4.40
2019-05-30T13:19:00.016Z,3.27
2019-05-30T13:21:30.492Z,3.00
2019-05-30T13:24:01.806Z,2.80
2019-05-30T13:26:32.417Z,2.60
2019-05-30T13:29:02.786Z,2.90
2019-05-30T13:31:33.204Z,3.30
2019-05-30T13:34:03.474Z,3.03
2019-05-30T13:36:33.824Z,2.87
2019-05-30T13:39:05.435Z,3.00
2019-05-30T13:41:35.855Z,3.05
2019-05-30T13:44:07.999Z,3.20
2019-05-30T13:46:38.137Z,2.80
2019-05-30T13:49:08.802Z,3.17
2019-05-30T13:51:39.249Z,2.73
2019-05-30T13:54:09.564Z,3.20
2019-05-30T13:56:39.908Z,2.90
2019-05-30T13:59:10.204Z,2.80
2019-05-30T14:01:41.600Z,2.90
2019-05-30T14:04:11.912Z,3.10
2019-05-30T14:06:42.258Z,3.20
2019-05-30T14:09:12.566Z,2.90
2019-05-30T14:11:42.967Z,2.90
2019-05-30T14:14:13.346Z,2.60
2019-05-30T14:16:43.681Z,3.17
2019-05-30T14:19:14.055Z,2.87
2019-05-30T14:21:44.459Z,2.30
2019-05-30T14:24:14.770Z,2.93
2019-05-30T14:26:45.112Z,3.12
2019-05-30T14:29:15.424Z,2.80
2019-05-30T14:31:45.765Z,2.90
2019-05-30T14:34:16.071Z,3.10
2019-05-30T14:36:46.499Z,2.87
2019-05-30T14:39:16.867Z,2.70
2019-05-30T14:41:47.195Z,3.10
2019-05-30T14:44:17.583Z,3.03
2019-05-30T14:46:47.932Z,8.83
2019-05-30T14:49:18.235Z,3.33
2019-05-30T14:51:48.572Z,4.10
2019-05-30T14:54:18.879Z,3.20
2019-05-30T14:56:49.231Z,3.27
2019-05-30T14:59:19.551Z,2.87
2019-05-30T15:01:49.887Z,3.00
2019-05-30T15:04:20.195Z,2.53
2019-05-30T15:06:50.535Z,2.60
2019-05-30T15:09:25.739Z,3.15
2019-05-30T15:11:52.945Z,2.60
2019-05-30T15:14:23.300Z,2.65
2019-05-30T15:16:53.637Z,3.10
2019-05-30T15:19:24.127Z,2.30
2019-05-30T15:21:54.474Z,2.20
2019-05-30T15:24:24.775Z,2.08
2019-05-30T15:26:55.097Z,1.98
2019-05-30T15:29:25.524Z,2.20
2019-05-30T15:31:55.850Z,2.20
2019-05-30T15:34:26.161Z,2.02
2019-05-30T15:36:56.512Z,2.20
2019-05-30T15:39:32.806Z,2.00
2019-05-30T15:41:58.836Z,2.30
2019-05-30T15:44:29.154Z,2.00
2019-05-30T15:46:59.496Z,2.10
2019-05-30T15:49:29.808Z,2.10
2019-05-30T15:52:00.136Z,2.10
2019-05-30T15:54:30.455Z,1.92
2019-05-30T15:57:00.782Z,1.95
2019-05-30T15:59:31.113Z,2.00
2019-05-30T16:02:01.466Z,1.85
2019-05-30T16:04:31.772Z,2.00
2019-05-30T16:07:02.175Z,1.80
2019-05-30T16:09:46.272Z,2.00
2019-05-30T16:12:04.532Z,1.70
2019-05-30T16:14:34.840Z,1.97
2019-05-30T16:17:05.202Z,1.80
2019-05-30T16:19:35.524Z,1.90
2019-05-30T16:22:06.039Z,1.60
2019-05-30T16:24:36.356Z,1.70
2019-05-30T16:27:08.157Z,1.67
2019-05-30T16:29:38.455Z,2.00
2019-05-30T16:32:08.790Z,2.00
2019-05-30T16:34:41.211Z,1.70
2019-05-30T16:37:12.513Z,1.67
2019-05-30T16:39:42.869Z,1.70
2019-05-30T16:42:14.414Z,1.90
2019-05-30T16:44:44.856Z,1.70
2019-05-30T16:47:16.466Z,1.83
2019-05-30T16:49:47.009Z,1.80
2019-05-30T16:52:17.387Z,1.73
2019-05-30T16:54:47.770Z,2.00
2019-05-30T16:57:18.540Z,1.60
2019-05-30T16:59:49.079Z,1.80
2019-05-30T17:02:19.463Z,1.70
2019-05-30T17:04:51.245Z,1.77
2019-05-30T17:07:21.632Z,1.70
2019-05-30T17:09:51.937Z,1.70
2019-05-30T17:12:22.290Z,1.70
2019-05-30T17:14:52.602Z,1.70
2019-05-30T17:17:24.109Z,1.70
2019-05-30T17:19:54.443Z,1.87
2019-05-30T17:22:25.916Z,2.03
2019-05-30T17:24:56.771Z,1.80
2019-05-30T17:27:27.283Z,1.77
2019-05-30T17:29:57.591Z,1.63
2019-05-30T17:32:28.019Z,1.50
2019-05-30T17:34:58.375Z,1.50
2019-05-30T17:37:28.834Z,1.57
2019-05-30T17:39:59.375Z,1.80
2019-05-30T17:42:29.729Z,1.70
2019-05-30T17:45:00.193Z,1.80
2019-05-30T17:47:30.550Z,1.60
2019-05-30T17:50:00.865Z,1.70
2019-05-30T17:52:32.275Z,1.50
2019-05-30T17:55:02.668Z,1.60
2019-05-30T17:57:33.072Z,1.70
2019-05-30T18:00:03.387Z,1.60
2019-05-30T18:02:34.410Z,1.80
2019-05-30T18:05:05.979Z,1.70
2019-05-30T18:07:37.065Z,1.83
2019-05-30T18:10:08.196Z,1.60
2019-05-30T18:12:38.532Z,1.77
2019-05-30T18:15:09.616Z,1.70
2019-05-30T18:17:40.877Z,1.70
2019-05-30T18:20:13.048Z,1.73
2019-05-30T18:22:43.395Z,1.80
2019-05-30T18:25:15.808Z,1.80
2019-05-30T18:27:46.203Z,1.60
2019-05-30T18:30:17.889Z,1.73
2019-05-30T18:32:48.218Z,1.60
2019-05-30T18:35:18.604Z,1.70
2019-05-30T18:37:49.011Z,1.67
2019-05-30T18:40:31.081Z,1.60
2019-05-30T18:43:01.481Z,1.60
2019-05-30T18:45:39.901Z,1.50
2019-05-30T18:48:11.184Z,1.53
2019-05-30T18:50:41.789Z,1.50
2019-05-30T18:53:12.247Z,1.60
2019-05-30T18:55:42.667Z,1.60
2019-05-30T18:58:13.068Z,1.60
2019-05-30T19:00:43.450Z,1.63
2019-05-30T19:03:13.827Z,1.60
2019-05-30T19:05:44.222Z,1.60
2019-05-30T19:08:14.651Z,1.53
2019-05-30T19:10:45.098Z,1.77
2019-05-30T19:13:15.520Z,1.60
2019-05-30T19:15:45.850Z,1.40
2019-05-30T19:18:16.239Z,1.50
2019-05-30T19:20:46.711Z,1.40
2019-05-30T19:23:17.057Z,1.40
2019-05-30T19:25:47.477Z,1.47
2019-05-30T19:28:17.771Z,1.40
2019-05-30T19:30:48.244Z,1.70
2019-05-30T19:33:20.764Z,1.80
2019-05-30T19:35:53.601Z,1.50
2019-05-30T19:38:23.938Z,1.60
2019-05-30T19:40:54.275Z,1.50
2019-05-30T19:43:25.703Z,1.60
2019-05-30T19:45:56.067Z,1.50
2019-05-30T19:48:28.193Z,1.90
2019-05-30T19:50:59.070Z,1.80
2019-05-30T19:53:30.691Z,1.80
2019-05-30T19:56:01.177Z,2.10
2019-05-30T19:58:31.637Z,2.30
2019-05-30T20:01:02.001Z,2.30
2019-05-30T20:03:38.504Z,2.40
2019-05-30T20:06:04.451Z,2.13
2019-05-30T20:08:47.899Z,2.07
2019-05-30T20:11:06.820Z,2.27
2019-05-30T20:13:37.233Z,2.10
2019-05-30T20:16:07.657Z,2.20
2019-05-30T20:18:37.949Z,2.00
2019-05-30T20:21:09.308Z,1.70
2019-05-30T20:23:49.502Z,1.90
2019-05-30T20:26:11.641Z,2.03
2019-05-30T20:28:42.974Z,2.23
2019-05-30T20:31:13.326Z,2.10
2019-05-30T20:33:43.612Z,2.20
2019-05-30T20:36:15.764Z,2.20
2019-05-30T20:38:46.910Z,2.10
2019-05-30T20:41:17.351Z,2.27
2019-05-30T20:43:47.753Z,1.93
2019-05-30T20:46:23.141Z,1.90
2019-05-30T20:48:50.212Z,2.00
2019-05-30T20:51:21.605Z,1.90
2019-05-30T20:53:55.288Z,1.90
2019-05-30T20:56:26.664Z,2.00
2019-05-30T20:58:56.977Z,2.00
2019-05-30T21:01:27.314Z,2.03
2019-05-30T21:03:57.625Z,2.00
2019-05-30T21:06:28.893Z,2.20
2019-05-30T21:09:00.406Z,1.93
2019-05-30T21:11:33.357Z,1.90
2019-05-30T21:14:04.158Z,2.13
2019-05-30T21:16:35.685Z,2.40
2019-05-30T21:19:06.095Z,2.70
2019-05-30T21:21:36.499Z,2.50
2019-05-30T21:24:06.831Z,2.23
2019-05-30T21:26:37.162Z,2.50
2019-05-30T21:29:07.497Z,2.60
2019-05-30T21:31:39.144Z,2.47
2019-05-30T21:34:10.826Z,2.30
2019-05-30T21:36:42.035Z,2.43
2019-05-30T21:39:12.398Z,2.40
2019-05-30T21:41:42.904Z,2.40
2019-05-30T21:44:13.255Z,2.50
2019-05-30T21:46:44.760Z,2.80
2019-05-30T21:49:16.196Z,2.33
2019-05-30T21:51:47.554Z,2.30
2019-05-30T21:54:17.924Z,2.30
2019-05-30T21:56:48.447Z,2.47
2019-05-30T21:59:18.776Z,2.53
2019-05-30T22:01:54.836Z,2.40
2019-05-30T22:04:21.368Z,2.57
2019-05-30T22:06:51.698Z,2.70
2019-05-30T22:09:22.032Z,2.50
2019-05-30T22:11:52.340Z,2.70
2019-05-30T22:14:22.678Z,2.87
2019-05-30T22:16:52.989Z,2.90
2019-05-30T22:19:23.345Z,2.63
2019-05-30T22:21:53.777Z,3.00
2019-05-30T22:24:24.122Z,2.77
2019-05-30T22:26:54.462Z,2.40
2019-05-30T22:29:24.764Z,2.50
2019-05-30T22:31:55.202Z,2.53
2019-05-30T22:34:25.518Z,2.80
2019-05-30T22:36:55.857Z,2.70
2019-05-30T22:39:26.163Z,2.90
2019-05-30T22:41:56.532Z,2.50
2019-05-30T22:44:26.800Z,3.20
2019-05-30T22:46:57.175Z,3.13
2019-05-30T22:49:27.455Z,3.10
2019-05-30T22:51:57.802Z,2.97
2019-05-30T22:54:28.104Z,3.17
2019-05-30T22:57:01.357Z,3.67
2019-05-30T22:59:30.467Z,4.43
2019-05-30T23:02:00.812Z,5.87
2019-05-30T23:04:31.107Z,4.10
2019-05-30T23:07:01.445Z,3.90
2019-05-30T23:09:31.744Z,3.80
2019-05-30T23:12:02.077Z,3.53
2019-05-30T23:14:32.378Z,3.40
2019-05-30T23:17:02.716Z,3.30
2019-05-30T23:19:33.063Z,3.40
2019-05-30T23:22:03.339Z,3.70
2019-05-30T23:24:33.661Z,3.30
2019-05-30T23:27:10.297Z,3.47
2019-05-30T23:29:40.977Z,3.30
2019-05-30T23:32:11.301Z,3.67
2019-05-30T23:34:41.607Z,3.60
2019-05-30T23:37:11.953Z,3.57
2019-05-30T23:39:42.259Z,3.90
2019-05-30T23:42:12.590Z,3.80
2019-05-30T23:44:42.889Z,3.50
2019-05-30T23:47:13.257Z,3.50
2019-05-30T23:49:43.529Z,3.80
2019-05-30T23:52:14.012Z,3.53
2019-05-30T23:54:44.402Z,3.97
2019-05-30T23:57:14.744Z,3.67
2019-05-30T23:59:45.059Z,3.50
